sensor_id;sensor_type;location;lat;lon;timestamp;P1;durP1;ratioP1;P2;durP2;ratioP2
26594;SDS011;14238;49.496;8.154;2023-04-03T00:01:32;4.50;;;4.30;;
26594;SDS011;14238;49.496;8.154;2023-04-03T00:03:58;4.43;;;4.10;;
26594;SDS011;14238;49.496;8.154;2023-04-03T00:06:23;4.20;;;3.90;;
26594;SDS011;14238;49.496;8.154;2023-04-03T00:08:50;4.10;;;3.80;;
26594;SDS011;14238;49.496;8.154;2023-04-03T00:11:16;4.27;;;3.97;;
26594;SDS011;14238;49.496;8.154;2023-04-03T00:13:42;4.90;;;4.50;;
26594;SDS011;14238;49.496;8.154;2023-04-03T00:16:08;4.00;;;3.80;;
26594;SDS011;14238;49.496;8.154;2023-04-03T00:18:35;4.73;;;4.43;;
26594;SDS011;14238;49.496;8.154;2023-04-03T00:21:01;4.90;;;4.57;;
26594;SDS011;14238;49.496;8.154;2023-04-03T00:23:27;4.47;;;4.13;;
26594;SDS011;14238;49.496;8.154;2023-04-03T00:25:53;3.93;;;3.63;;
26594;SDS011;14238;49.496;8.154;2023-04-03T00:28:18;4.83;;;4.43;;
26594;SDS011;14238;49.496;8.154;2023-04-03T00:30:45;4.60;;;4.30;;
26594;SDS011;14238;49.496;8.154;2023-04-03T00:33:14;5.30;;;4.90;;
26594;SDS011;14238;49.496;8.154;2023-04-03T00:35:40;4.97;;;4.67;;
26594;SDS011;14238;49.496;8.154;2023-04-03T00:38:06;4.77;;;4.43;;
26594;SDS011;14238;49.496;8.154;2023-04-03T00:40:38;5.47;;;4.50;;
26594;SDS011;14238;49.496;8.154;2023-04-03T00:43:17;4.97;;;4.67;;
26594;SDS011;14238;49.496;8.154;2023-04-03T00:45:48;4.63;;;4.23;;
26594;SDS011;14238;49.496;8.154;2023-04-03T00:48:39;4.50;;;4.20;;
26594;SDS011;14238;49.496;8.154;2023-04-03T00:51:06;5.43;;;4.90;;
26594;SDS011;14238;49.496;8.154;2023-04-03T00:53:39;5.43;;;5.03;;
26594;SDS011;14238;49.496;8.154;2023-04-03T00:56:10;5.37;;;4.97;;
26594;SDS011;14238;49.496;8.154;2023-04-03T00:59:21;4.53;;;4.23;;
26594;SDS011;14238;49.496;8.154;2023-04-03T01:01:33;5.33;;;4.83;;
26594;SDS011;14238;49.496;8.154;2023-04-03T01:04:00;4.70;;;4.40;;
26594;SDS011;14238;49.496;8.154;2023-04-03T01:06:28;5.37;;;5.07;;
26594;SDS011;14238;49.496;8.154;2023-04-03T01:08:57;4.80;;;4.50;;
26594;SDS011;14238;49.496;8.154;2023-04-03T01:11:24;5.30;;;4.87;;
26594;SDS011;14238;49.496;8.154;2023-04-03T01:13:50;5.63;;;5.23;;
26594;SDS011;14238;49.496;8.154;2023-04-03T01:16:15;5.63;;;5.20;;
26594;SDS011;14238;49.496;8.154;2023-04-03T01:18:41;5.60;;;5.17;;
26594;SDS011;14238;49.496;8.154;2023-04-03T01:26:47;5.90;;;5.50;;
26594;SDS011;14238;49.496;8.154;2023-04-03T01:29:14;6.00;;;5.50;;
26594;SDS011;14238;49.496;8.154;2023-04-03T01:34:17;5.00;;;4.70;;
26594;SDS011;14238;49.496;8.154;2023-04-03T01:36:42;5.83;;;5.33;;
26594;SDS011;14238;49.496;8.154;2023-04-03T01:39:08;6.80;;;6.30;;
26594;SDS011;14238;49.496;8.154;2023-04-03T01:41:34;6.50;;;6.00;;
26594;SDS011;14238;49.496;8.154;2023-04-03T01:43:59;6.60;;;6.10;;
26594;SDS011;14238;49.496;8.154;2023-04-03T01:46:25;7.80;;;7.03;;
26594;SDS011;14238;49.496;8.154;2023-04-03T01:48:51;7.23;;;6.73;;
26594;SDS011;14238;49.496;8.154;2023-04-03T01:51:16;6.73;;;6.10;;
26594;SDS011;14238;49.496;8.154;2023-04-03T01:53:42;6.47;;;6.07;;
26594;SDS011;14238;49.496;8.154;2023-04-03T01:56:08;6.63;;;6.13;;
26594;SDS011;14238;49.496;8.154;2023-04-03T01:58:33;6.50;;;6.00;;
26594;SDS011;14238;49.496;8.154;2023-04-03T02:00:59;7.47;;;6.77;;
26594;SDS011;14238;49.496;8.154;2023-04-03T02:03:24;6.40;;;5.93;;
26594;SDS011;14238;49.496;8.154;2023-04-03T02:05:50;6.73;;;6.03;;
26594;SDS011;14238;49.496;8.154;2023-04-03T02:08:15;6.40;;;5.93;;
26594;SDS011;14238;49.496;8.154;2023-04-03T02:10:43;7.20;;;6.60;;
26594;SDS011;14238;49.496;8.154;2023-04-03T02:13:11;6.50;;;6.00;;
26594;SDS011;14238;49.496;8.154;2023-04-03T02:15:39;6.73;;;6.23;;
26594;SDS011;14238;49.496;8.154;2023-04-03T02:18:05;5.60;;;5.20;;
26594;SDS011;14238;49.496;8.154;2023-04-03T02:20:31;5.60;;;5.20;;
26594;SDS011;14238;49.496;8.154;2023-04-03T02:22:57;6.13;;;5.73;;
26594;SDS011;14238;49.496;8.154;2023-04-03T02:25:23;6.40;;;5.90;;
26594;SDS011;14238;49.496;8.154;2023-04-03T02:27:48;6.70;;;6.03;;
26594;SDS011;14238;49.496;8.154;2023-04-03T02:30:14;5.93;;;5.53;;
26594;SDS011;14238;49.496;8.154;2023-04-03T02:32:40;7.37;;;5.43;;
26594;SDS011;14238;49.496;8.154;2023-04-03T02:35:07;5.53;;;5.07;;
26594;SDS011;14238;49.496;8.154;2023-04-03T02:37:33;5.20;;;4.90;;
26594;SDS011;14238;49.496;8.154;2023-04-03T02:39:59;5.50;;;4.80;;
26594;SDS011;14238;49.496;8.154;2023-04-03T02:42:25;5.43;;;5.03;;
26594;SDS011;14238;49.496;8.154;2023-04-03T02:44:51;5.27;;;4.77;;
26594;SDS011;14238;49.496;8.154;2023-04-03T02:47:16;5.80;;;4.97;;
26594;SDS011;14238;49.496;8.154;2023-04-03T02:49:42;8.77;;;5.27;;
26594;SDS011;14238;49.496;8.154;2023-04-03T02:52:09;5.67;;;5.17;;
26594;SDS011;14238;49.496;8.154;2023-04-03T02:54:35;5.63;;;5.13;;
26594;SDS011;14238;49.496;8.154;2023-04-03T02:57:01;6.30;;;5.70;;
26594;SDS011;14238;49.496;8.154;2023-04-03T02:59:27;5.67;;;5.17;;
26594;SDS011;14238;49.496;8.154;2023-04-03T03:01:52;5.80;;;5.27;;
26594;SDS011;14238;49.496;8.154;2023-04-03T03:04:18;5.63;;;5.13;;
26594;SDS011;14238;49.496;8.154;2023-04-03T03:06:43;6.90;;;5.63;;
26594;SDS011;14238;49.496;8.154;2023-04-03T03:09:09;7.37;;;6.00;;
26594;SDS011;14238;49.496;8.154;2023-04-03T03:11:35;4.90;;;4.40;;
26594;SDS011;14238;49.496;8.154;2023-04-03T03:14:00;6.40;;;5.90;;
26594;SDS011;14238;49.496;8.154;2023-04-03T03:16:26;5.67;;;5.20;;
26594;SDS011;14238;49.496;8.154;2023-04-03T03:18:51;6.27;;;4.70;;
26594;SDS011;14238;49.496;8.154;2023-04-03T03:21:17;5.50;;;5.00;;
26594;SDS011;14238;49.496;8.154;2023-04-03T03:23:43;5.50;;;5.00;;
26594;SDS011;14238;49.496;8.154;2023-04-03T03:26:09;4.97;;;4.47;;
26594;SDS011;14238;49.496;8.154;2023-04-03T03:28:36;4.70;;;4.40;;
26594;SDS011;14238;49.496;8.154;2023-04-03T03:31:02;7.80;;;4.77;;
26594;SDS011;14238;49.496;8.154;2023-04-03T03:33:28;5.87;;;4.70;;
26594;SDS011;14238;49.496;8.154;2023-04-03T03:35:54;5.13;;;4.73;;
26594;SDS011;14238;49.496;8.154;2023-04-03T03:38:21;5.07;;;4.67;;
26594;SDS011;14238;49.496;8.154;2023-04-03T03:40:47;5.80;;;5.30;;
26594;SDS011;14238;49.496;8.154;2023-04-03T03:43:13;5.00;;;4.63;;
26594;SDS011;14238;49.496;8.154;2023-04-03T03:45:39;6.83;;;4.70;;
26594;SDS011;14238;49.496;8.154;2023-04-03T03:48:05;4.30;;;4.00;;
26594;SDS011;14238;49.496;8.154;2023-04-03T03:50:31;5.00;;;4.60;;
26594;SDS011;14238;49.496;8.154;2023-04-03T03:52:56;5.00;;;4.60;;
26594;SDS011;14238;49.496;8.154;2023-04-03T03:55:22;5.20;;;4.80;;
26594;SDS011;14238;49.496;8.154;2023-04-03T03:57:47;5.97;;;5.37;;
26594;SDS011;14238;49.496;8.154;2023-04-03T04:00:13;5.20;;;4.80;;
26594;SDS011;14238;49.496;8.154;2023-04-03T04:02:40;5.57;;;5.03;;
26594;SDS011;14238;49.496;8.154;2023-04-03T04:05:06;5.20;;;4.80;;
26594;SDS011;14238;49.496;8.154;2023-04-03T04:07:31;4.33;;;4.03;;
26594;SDS011;14238;49.496;8.154;2023-04-03T04:09:57;4.50;;;4.20;;
26594;SDS011;14238;49.496;8.154;2023-04-03T04:12:22;4.83;;;4.53;;
26594;SDS011;14238;49.496;8.154;2023-04-03T04:14:48;4.77;;;4.47;;
26594;SDS011;14238;49.496;8.154;2023-04-03T04:17:13;4.63;;;4.23;;
26594;SDS011;14238;49.496;8.154;2023-04-03T04:19:39;4.47;;;4.07;;
26594;SDS011;14238;49.496;8.154;2023-04-03T04:22:05;4.90;;;4.50;;
26594;SDS011;14238;49.496;8.154;2023-04-03T04:24:30;5.50;;;5.10;;
26594;SDS011;14238;49.496;8.154;2023-04-03T04:26:56;4.63;;;4.33;;
26594;SDS011;14238;49.496;8.154;2023-04-03T04:29:21;5.10;;;4.70;;
26594;SDS011;14238;49.496;8.154;2023-04-03T04:31:47;4.03;;;3.70;;
26594;SDS011;14238;49.496;8.154;2023-04-03T04:34:13;4.60;;;4.30;;
26594;SDS011;14238;49.496;8.154;2023-04-03T04:36:39;5.30;;;4.90;;
26594;SDS011;14238;49.496;8.154;2023-04-03T04:39:05;5.50;;;5.10;;
26594;SDS011;14238;49.496;8.154;2023-04-03T04:41:31;4.17;;;3.93;;
26594;SDS011;14238;49.496;8.154;2023-04-03T04:43:56;4.50;;;4.20;;
26594;SDS011;14238;49.496;8.154;2023-04-03T04:46:22;5.33;;;4.90;;
26594;SDS011;14238;49.496;8.154;2023-04-03T04:48:48;4.50;;;4.10;;
26594;SDS011;14238;49.496;8.154;2023-04-03T04:51:14;5.23;;;4.77;;
26594;SDS011;14238;49.496;8.154;2023-04-03T04:53:40;5.40;;;4.93;;
26594;SDS011;14238;49.496;8.154;2023-04-03T04:56:06;7.67;;;5.37;;
26594;SDS011;14238;49.496;8.154;2023-04-03T04:58:32;6.20;;;5.60;;
26594;SDS011;14238;49.496;8.154;2023-04-03T05:01:01;5.53;;;5.13;;
26594;SDS011;14238;49.496;8.154;2023-04-03T05:03:28;6.50;;;5.27;;
26594;SDS011;14238;49.496;8.154;2023-04-03T05:05:53;8.93;;;5.87;;
26594;SDS011;14238;49.496;8.154;2023-04-03T05:08:19;7.27;;;5.90;;
26594;SDS011;14238;49.496;8.154;2023-04-03T05:10:45;6.30;;;5.73;;
26594;SDS011;14238;49.496;8.154;2023-04-03T05:13:11;6.50;;;6.00;;
26594;SDS011;14238;49.496;8.154;2023-04-03T05:15:36;5.73;;;5.33;;
26594;SDS011;14238;49.496;8.154;2023-04-03T05:18:02;6.30;;;5.70;;
26594;SDS011;14238;49.496;8.154;2023-04-03T05:20:27;5.50;;;5.00;;
26594;SDS011;14238;49.496;8.154;2023-04-03T05:22:53;6.43;;;5.77;;
26594;SDS011;14238;49.496;8.154;2023-04-03T05:25:19;8.00;;;5.77;;
26594;SDS011;14238;49.496;8.154;2023-04-03T05:27:44;5.57;;;5.10;;
26594;SDS011;14238;49.496;8.154;2023-04-03T05:30:10;6.73;;;5.60;;
26594;SDS011;14238;49.496;8.154;2023-04-03T05:32:36;6.00;;;5.50;;
26594;SDS011;14238;49.496;8.154;2023-04-03T05:35:01;5.87;;;5.40;;
26594;SDS011;14238;49.496;8.154;2023-04-03T05:37:27;6.10;;;5.50;;
26594;SDS011;14238;49.496;8.154;2023-04-03T05:39:52;5.80;;;5.30;;
26594;SDS011;14238;49.496;8.154;2023-04-03T05:42:18;5.30;;;4.83;;
26594;SDS011;14238;49.496;8.154;2023-04-03T05:44:43;8.63;;;5.00;;
26594;SDS011;14238;49.496;8.154;2023-04-03T05:47:11;5.07;;;4.57;;
26594;SDS011;14238;49.496;8.154;2023-04-03T05:49:37;4.30;;;4.00;;
26594;SDS011;14238;49.496;8.154;2023-04-03T05:52:05;4.73;;;4.37;;
26594;SDS011;14238;49.496;8.154;2023-04-03T05:54:37;5.07;;;4.73;;
26594;SDS011;14238;49.496;8.154;2023-04-03T05:57:02;5.07;;;4.60;;
26594;SDS011;14238;49.496;8.154;2023-04-03T05:59:28;5.07;;;4.67;;
26594;SDS011;14238;49.496;8.154;2023-04-03T06:01:53;4.43;;;4.03;;
26594;SDS011;14238;49.496;8.154;2023-04-03T06:04:19;5.00;;;4.60;;
26594;SDS011;14238;49.496;8.154;2023-04-03T06:06:46;5.57;;;5.07;;
26594;SDS011;14238;49.496;8.154;2023-04-03T06:09:16;5.70;;;4.67;;
26594;SDS011;14238;49.496;8.154;2023-04-03T06:11:44;5.33;;;4.97;;
26594;SDS011;14238;49.496;8.154;2023-04-03T06:14:10;4.90;;;4.50;;
26594;SDS011;14238;49.496;8.154;2023-04-03T06:16:36;5.60;;;5.20;;
26594;SDS011;14238;49.496;8.154;2023-04-03T06:19:03;6.67;;;5.33;;
26594;SDS011;14238;49.496;8.154;2023-04-03T06:21:29;5.20;;;4.57;;
26594;SDS011;14238;49.496;8.154;2023-04-03T06:23:55;5.97;;;5.37;;
26594;SDS011;14238;49.496;8.154;2023-04-03T06:26:20;6.17;;;5.03;;
26594;SDS011;14238;49.496;8.154;2023-04-03T06:28:47;6.03;;;5.37;;
26594;SDS011;14238;49.496;8.154;2023-04-03T06:31:12;5.97;;;5.43;;
26594;SDS011;14238;49.496;8.154;2023-04-03T06:33:38;5.83;;;5.30;;
26594;SDS011;14238;49.496;8.154;2023-04-03T06:36:04;10.77;;;6.10;;
26594;SDS011;14238;49.496;8.154;2023-04-03T06:38:30;7.03;;;6.00;;
26594;SDS011;14238;49.496;8.154;2023-04-03T06:40:57;6.30;;;5.80;;
26594;SDS011;14238;49.496;8.154;2023-04-03T06:43:23;5.37;;;4.50;;
26594;SDS011;14238;49.496;8.154;2023-04-03T06:45:49;4.60;;;4.20;;
26594;SDS011;14238;49.496;8.154;2023-04-03T06:48:15;3.97;;;3.67;;
26594;SDS011;14238;49.496;8.154;2023-04-03T06:50:41;4.97;;;4.47;;
26594;SDS011;14238;49.496;8.154;2023-04-03T06:53:07;6.20;;;4.07;;
26594;SDS011;14238;49.496;8.154;2023-04-03T06:55:33;4.40;;;4.00;;
26594;SDS011;14238;49.496;8.154;2023-04-03T06:57:59;4.33;;;3.93;;
26594;SDS011;14238;49.496;8.154;2023-04-03T07:00:25;8.60;;;7.70;;
26594;SDS011;14238;49.496;8.154;2023-04-03T07:02:51;7.77;;;4.20;;
26594;SDS011;14238;49.496;8.154;2023-04-03T07:05:16;8.50;;;7.70;;
26594;SDS011;14238;49.496;8.154;2023-04-03T07:07:43;7.80;;;6.17;;
26594;SDS011;14238;49.496;8.154;2023-04-03T07:10:08;10.13;;;6.60;;
26594;SDS011;14238;49.496;8.154;2023-04-03T07:12:35;6.20;;;5.50;;
26594;SDS011;14238;49.496;8.154;2023-04-03T07:15:01;7.43;;;3.57;;
26594;SDS011;14238;49.496;8.154;2023-04-03T07:17:27;4.83;;;3.77;;
26594;SDS011;14238;49.496;8.154;2023-04-03T07:19:53;4.80;;;4.40;;
26594;SDS011;14238;49.496;8.154;2023-04-03T07:22:18;5.30;;;3.37;;
26594;SDS011;14238;49.496;8.154;2023-04-03T07:24:44;5.27;;;4.30;;
26594;SDS011;14238;49.496;8.154;2023-04-03T07:27:10;4.77;;;4.37;;
26594;SDS011;14238;49.496;8.154;2023-04-03T07:29:37;6.37;;;3.73;;
26594;SDS011;14238;49.496;8.154;2023-04-03T07:32:03;4.27;;;3.97;;
26594;SDS011;14238;49.496;8.154;2023-04-03T07:34:30;5.20;;;4.00;;
26594;SDS011;14238;49.496;8.154;2023-04-03T07:36:56;4.97;;;4.47;;
26594;SDS011;14238;49.496;8.154;2023-04-03T07:39:22;4.93;;;3.70;;
26594;SDS011;14238;49.496;8.154;2023-04-03T07:41:48;4.40;;;4.00;;
26594;SDS011;14238;49.496;8.154;2023-04-03T07:44:14;5.33;;;4.50;;
26594;SDS011;14238;49.496;8.154;2023-04-03T07:46:40;4.30;;;4.00;;
26594;SDS011;14238;49.496;8.154;2023-04-03T07:49:07;4.60;;;4.00;;
26594;SDS011;14238;49.496;8.154;2023-04-03T07:51:33;4.60;;;4.23;;
26594;SDS011;14238;49.496;8.154;2023-04-03T07:53:58;5.13;;;4.47;;
26594;SDS011;14238;49.496;8.154;2023-04-03T07:56:24;4.93;;;4.57;;
26594;SDS011;14238;49.496;8.154;2023-04-03T07:58:50;5.07;;;4.63;;
26594;SDS011;14238;49.496;8.154;2023-04-03T08:01:16;5.30;;;4.80;;
26594;SDS011;14238;49.496;8.154;2023-04-03T08:03:41;4.17;;;3.73;;
26594;SDS011;14238;49.496;8.154;2023-04-03T08:06:08;4.63;;;4.27;;
26594;SDS011;14238;49.496;8.154;2023-04-03T08:08:34;7.40;;;4.93;;
26594;SDS011;14238;49.496;8.154;2023-04-03T08:11:00;5.63;;;4.93;;
26594;SDS011;14238;49.496;8.154;2023-04-03T08:13:27;6.00;;;4.87;;
26594;SDS011;14238;49.496;8.154;2023-04-03T08:15:53;7.97;;;4.90;;
26594;SDS011;14238;49.496;8.154;2023-04-03T08:18:20;9.37;;;5.50;;
26594;SDS011;14238;49.496;8.154;2023-04-03T08:20:49;5.73;;;4.70;;
26594;SDS011;14238;49.496;8.154;2023-04-03T08:23:15;6.13;;;5.17;;
26594;SDS011;14238;49.496;8.154;2023-04-03T08:25:41;5.17;;;4.77;;
26594;SDS011;14238;49.496;8.154;2023-04-03T08:28:07;5.53;;;4.97;;
26594;SDS011;14238;49.496;8.154;2023-04-03T08:30:34;5.27;;;4.53;;
26594;SDS011;14238;49.496;8.154;2023-04-03T08:33:00;5.30;;;4.80;;
26594;SDS011;14238;49.496;8.154;2023-04-03T08:35:26;6.33;;;5.83;;
26594;SDS011;14238;49.496;8.154;2023-04-03T08:37:52;5.53;;;4.67;;
26594;SDS011;14238;49.496;8.154;2023-04-03T08:40:18;5.17;;;4.77;;
26594;SDS011;14238;49.496;8.154;2023-04-03T08:45:25;5.33;;;4.83;;
26594;SDS011;14238;49.496;8.154;2023-04-03T08:48:08;4.27;;;3.70;;
26594;SDS011;14238;49.496;8.154;2023-04-03T08:50:40;3.87;;;3.57;;
26594;SDS011;14238;49.496;8.154;2023-04-03T08:53:17;3.87;;;3.23;;
26594;SDS011;14238;49.496;8.154;2023-04-03T08:55:49;5.93;;;3.80;;
26594;SDS011;14238;49.496;8.154;2023-04-03T08:58:18;4.20;;;3.50;;
26594;SDS011;14238;49.496;8.154;2023-04-03T09:03:17;3.80;;;3.50;;
26594;SDS011;14238;49.496;8.154;2023-04-03T09:08:24;3.30;;;3.00;;
26594;SDS011;14238;49.496;8.154;2023-04-03T09:11:16;2.63;;;2.53;;
26594;SDS011;14238;49.496;8.154;2023-04-03T09:16:53;3.23;;;2.93;;
26594;SDS011;14238;49.496;8.154;2023-04-03T09:19:48;3.30;;;2.60;;
26594;SDS011;14238;49.496;8.154;2023-04-03T09:22:26;3.60;;;2.80;;
26594;SDS011;14238;49.496;8.154;2023-04-03T09:25:05;3.83;;;2.90;;
26594;SDS011;14238;49.496;8.154;2023-04-03T09:27:35;6.53;;;2.97;;
26594;SDS011;14238;49.496;8.154;2023-04-03T09:30:02;2.90;;;2.70;;
26594;SDS011;14238;49.496;8.154;2023-04-03T09:32:32;2.90;;;2.63;;
26594;SDS011;14238;49.496;8.154;2023-04-03T09:35:21;3.33;;;2.60;;
26594;SDS011;14238;49.496;8.154;2023-04-03T09:37:51;2.97;;;2.73;;
26594;SDS011;14238;49.496;8.154;2023-04-03T09:42:50;2.83;;;2.57;;
26594;SDS011;14238;49.496;8.154;2023-04-03T09:50:32;4.40;;;3.00;;
26594;SDS011;14238;49.496;8.154;2023-04-03T09:53:02;2.57;;;2.37;;
26594;SDS011;14238;49.496;8.154;2023-04-03T09:55:30;2.67;;;2.47;;
26594;SDS011;14238;49.496;8.154;2023-04-03T09:58:00;2.83;;;2.60;;
26594;SDS011;14238;49.496;8.154;2023-04-03T10:00:30;2.30;;;2.10;;
26594;SDS011;14238;49.496;8.154;2023-04-03T10:03:01;2.60;;;2.40;;
26594;SDS011;14238;49.496;8.154;2023-04-03T10:05:33;2.30;;;2.00;;
26594;SDS011;14238;49.496;8.154;2023-04-03T10:10:42;2.33;;;2.13;;
26594;SDS011;14238;49.496;8.154;2023-04-03T10:16:06;1.90;;;1.80;;
26594;SDS011;14238;49.496;8.154;2023-04-03T10:21:35;6.57;;;2.23;;
26594;SDS011;14238;49.496;8.154;2023-04-03T10:24:14;2.23;;;2.03;;
26594;SDS011;14238;49.496;8.154;2023-04-03T10:27:02;2.93;;;1.77;;
26594;SDS011;14238;49.496;8.154;2023-04-03T10:37:59;2.67;;;1.90;;
26594;SDS011;14238;49.496;8.154;2023-04-03T10:43:26;2.90;;;2.00;;
26594;SDS011;14238;49.496;8.154;2023-04-03T10:46:11;2.17;;;1.83;;
26594;SDS011;14238;49.496;8.154;2023-04-03T10:49:03;2.40;;;2.07;;
26594;SDS011;14238;49.496;8.154;2023-04-03T10:51:44;2.17;;;1.90;;
26594;SDS011;14238;49.496;8.154;2023-04-03T10:54:13;2.37;;;2.17;;
26594;SDS011;14238;49.496;8.154;2023-04-03T10:59:30;3.80;;;1.77;;
26594;SDS011;14238;49.496;8.154;2023-04-03T11:02:01;4.37;;;2.33;;
26594;SDS011;14238;49.496;8.154;2023-04-03T11:04:34;4.33;;;2.23;;
26594;SDS011;14238;49.496;8.154;2023-04-03T11:07:17;2.87;;;2.30;;
26594;SDS011;14238;49.496;8.154;2023-04-03T11:09:46;2.20;;;2.00;;
26594;SDS011;14238;49.496;8.154;2023-04-03T11:12:21;2.20;;;2.00;;
26594;SDS011;14238;49.496;8.154;2023-04-03T11:14:58;4.90;;;2.20;;
26594;SDS011;14238;49.496;8.154;2023-04-03T11:17:28;2.47;;;2.27;;
26594;SDS011;14238;49.496;8.154;2023-04-03T11:25:56;2.13;;;2.03;;
26594;SDS011;14238;49.496;8.154;2023-04-03T11:28:31;9.70;;;2.37;;
26594;SDS011;14238;49.496;8.154;2023-04-03T11:33:36;1.87;;;1.73;;
26594;SDS011;14238;49.496;8.154;2023-04-03T11:36:22;2.20;;;2.00;;
26594;SDS011;14238;49.496;8.154;2023-04-03T11:38:54;2.00;;;1.90;;
26594;SDS011;14238;49.496;8.154;2023-04-03T11:41:29;5.13;;;1.80;;
26594;SDS011;14238;49.496;8.154;2023-04-03T11:44:00;2.10;;;2.00;;
26594;SDS011;14238;49.496;8.154;2023-04-03T11:55:35;2.80;;;2.47;;
26594;SDS011;14238;49.496;8.154;2023-04-03T12:03:29;4.07;;;2.23;;
26594;SDS011;14238;49.496;8.154;2023-04-03T12:24:36;2.40;;;2.07;;
26594;SDS011;14238;49.496;8.154;2023-04-03T12:29:55;2.03;;;1.73;;
26594;SDS011;14238;49.496;8.154;2023-04-03T12:35:27;5.87;;;2.10;;
26594;SDS011;14238;49.496;8.154;2023-04-03T12:46:34;2.13;;;1.90;;
26594;SDS011;14238;49.496;8.154;2023-04-03T12:49:10;2.33;;;2.17;;
26594;SDS011;14238;49.496;8.154;2023-04-03T12:52:03;2.30;;;1.77;;
26594;SDS011;14238;49.496;8.154;2023-04-03T12:54:38;2.00;;;1.90;;
26594;SDS011;14238;49.496;8.154;2023-04-03T12:59:52;3.57;;;1.80;;
26594;SDS011;14238;49.496;8.154;2023-04-03T13:02:28;2.87;;;2.23;;
26594;SDS011;14238;49.496;8.154;2023-04-03T13:04:58;2.13;;;2.00;;
26594;SDS011;14238;49.496;8.154;2023-04-03T13:07:31;1.90;;;1.80;;
26594;SDS011;14238;49.496;8.154;2023-04-03T13:12:31;2.13;;;1.93;;
26594;SDS011;14238;49.496;8.154;2023-04-03T13:14:59;1.80;;;1.70;;
26594;SDS011;14238;49.496;8.154;2023-04-03T13:17:29;2.00;;;1.90;;
26594;SDS011;14238;49.496;8.154;2023-04-03T13:19:54;2.27;;;2.07;;
26594;SDS011;14238;49.496;8.154;2023-04-03T13:24:52;2.70;;;2.50;;
26594;SDS011;14238;49.496;8.154;2023-04-03T13:27:19;4.53;;;2.27;;
26594;SDS011;14238;49.496;8.154;2023-04-03T13:29:48;2.50;;;2.30;;
26594;SDS011;14238;49.496;8.154;2023-04-03T13:32:18;4.10;;;2.53;;
26594;SDS011;14238;49.496;8.154;2023-04-03T13:34:46;4.00;;;2.50;;
26594;SDS011;14238;49.496;8.154;2023-04-03T13:37:19;2.30;;;2.10;;
26594;SDS011;14238;49.496;8.154;2023-04-03T13:39:56;2.83;;;2.30;;
26594;SDS011;14238;49.496;8.154;2023-04-03T13:42:29;2.23;;;2.13;;
26594;SDS011;14238;49.496;8.154;2023-04-03T13:45:08;2.50;;;2.30;;
26594;SDS011;14238;49.496;8.154;2023-04-03T13:47:39;2.60;;;2.10;;
26594;SDS011;14238;49.496;8.154;2023-04-03T13:52:52;2.40;;;2.20;;
26594;SDS011;14238;49.496;8.154;2023-04-03T13:55:32;3.40;;;2.00;;
26594;SDS011;14238;49.496;8.154;2023-04-03T13:58:00;2.77;;;2.00;;
26594;SDS011;14238;49.496;8.154;2023-04-03T14:03:11;2.27;;;2.07;;
26594;SDS011;14238;49.496;8.154;2023-04-03T14:05:38;3.70;;;2.50;;
26594;SDS011;14238;49.496;8.154;2023-04-03T14:08:04;2.10;;;2.00;;
26594;SDS011;14238;49.496;8.154;2023-04-03T14:10:32;3.43;;;2.20;;
26594;SDS011;14238;49.496;8.154;2023-04-03T14:12:57;2.60;;;2.40;;
26594;SDS011;14238;49.496;8.154;2023-04-03T14:15:24;2.43;;;2.33;;
26594;SDS011;14238;49.496;8.154;2023-04-03T14:17:53;2.00;;;1.90;;
26594;SDS011;14238;49.496;8.154;2023-04-03T14:20:21;2.60;;;2.30;;
26594;SDS011;14238;49.496;8.154;2023-04-03T14:22:48;3.73;;;2.00;;
26594;SDS011;14238;49.496;8.154;2023-04-03T14:25:16;2.10;;;2.00;;
26594;SDS011;14238;49.496;8.154;2023-04-03T14:27:43;2.27;;;2.03;;
26594;SDS011;14238;49.496;8.154;2023-04-03T14:30:18;2.83;;;2.20;;
26594;SDS011;14238;49.496;8.154;2023-04-03T14:32:46;3.40;;;2.17;;
26594;SDS011;14238;49.496;8.154;2023-04-03T14:35:13;2.63;;;2.40;;
26594;SDS011;14238;49.496;8.154;2023-04-03T14:37:39;2.23;;;2.10;;
26594;SDS011;14238;49.496;8.154;2023-04-03T14:40:06;3.50;;;1.90;;
26594;SDS011;14238;49.496;8.154;2023-04-03T14:42:34;3.00;;;2.70;;
26594;SDS011;14238;49.496;8.154;2023-04-03T14:45:05;3.10;;;2.33;;
26594;SDS011;14238;49.496;8.154;2023-04-03T14:47:33;1.90;;;1.80;;
26594;SDS011;14238;49.496;8.154;2023-04-03T14:50:12;1.87;;;1.77;;
26594;SDS011;14238;49.496;8.154;2023-04-03T14:52:42;1.83;;;1.73;;
26594;SDS011;14238;49.496;8.154;2023-04-03T14:55:08;2.27;;;2.10;;
26594;SDS011;14238;49.496;8.154;2023-04-03T14:57:34;4.97;;;2.53;;
26594;SDS011;14238;49.496;8.154;2023-04-03T15:00:00;1.80;;;1.70;;
26594;SDS011;14238;49.496;8.154;2023-04-03T15:02:28;3.60;;;1.73;;
26594;SDS011;14238;49.496;8.154;2023-04-03T15:05:00;2.33;;;2.23;;
26594;SDS011;14238;49.496;8.154;2023-04-03T15:07:29;2.17;;;2.07;;
26594;SDS011;14238;49.496;8.154;2023-04-03T15:09:57;2.20;;;2.10;;
26594;SDS011;14238;49.496;8.154;2023-04-03T15:12:24;2.50;;;2.30;;
26594;SDS011;14238;49.496;8.154;2023-04-03T15:14:50;2.70;;;2.40;;
26594;SDS011;14238;49.496;8.154;2023-04-03T15:17:17;2.10;;;2.00;;
26594;SDS011;14238;49.496;8.154;2023-04-03T15:19:46;2.10;;;1.90;;
26594;SDS011;14238;49.496;8.154;2023-04-03T15:22:15;3.03;;;2.83;;
26594;SDS011;14238;49.496;8.154;2023-04-03T15:24:42;5.23;;;2.20;;
26594;SDS011;14238;49.496;8.154;2023-04-03T15:27:08;2.17;;;2.07;;
26594;SDS011;14238;49.496;8.154;2023-04-03T15:29:35;2.43;;;2.33;;
26594;SDS011;14238;49.496;8.154;2023-04-03T15:32:01;3.20;;;2.53;;
26594;SDS011;14238;49.496;8.154;2023-04-03T15:34:27;5.60;;;2.37;;
26594;SDS011;14238;49.496;8.154;2023-04-03T15:36:53;3.30;;;2.03;;
26594;SDS011;14238;49.496;8.154;2023-04-03T15:39:19;2.20;;;2.10;;
26594;SDS011;14238;49.496;8.154;2023-04-03T15:41:45;2.43;;;2.23;;
26594;SDS011;14238;49.496;8.154;2023-04-03T15:44:11;2.30;;;2.10;;
26594;SDS011;14238;49.496;8.154;2023-04-03T15:46:38;3.53;;;2.40;;
26594;SDS011;14238;49.496;8.154;2023-04-03T15:49:04;2.20;;;2.03;;
26594;SDS011;14238;49.496;8.154;2023-04-03T15:51:30;2.87;;;2.67;;
26594;SDS011;14238;49.496;8.154;2023-04-03T15:53:56;2.93;;;2.50;;
26594;SDS011;14238;49.496;8.154;2023-04-03T15:56:22;2.30;;;2.20;;
26594;SDS011;14238;49.496;8.154;2023-04-03T15:58:47;2.40;;;2.27;;
26594;SDS011;14238;49.496;8.154;2023-04-03T16:01:13;2.13;;;1.90;;
26594;SDS011;14238;49.496;8.154;2023-04-03T16:03:40;2.33;;;2.20;;
26594;SDS011;14238;49.496;8.154;2023-04-03T16:06:10;2.30;;;2.20;;
26594;SDS011;14238;49.496;8.154;2023-04-03T16:08:37;2.33;;;2.23;;
26594;SDS011;14238;49.496;8.154;2023-04-03T16:11:02;2.23;;;2.03;;
26594;SDS011;14238;49.496;8.154;2023-04-03T16:13:28;2.20;;;2.10;;
26594;SDS011;14238;49.496;8.154;2023-04-03T16:15:54;2.30;;;1.90;;
26594;SDS011;14238;49.496;8.154;2023-04-03T16:18:20;1.70;;;1.60;;
26594;SDS011;14238;49.496;8.154;2023-04-03T16:20:46;1.80;;;1.70;;
26594;SDS011;14238;49.496;8.154;2023-04-03T16:23:12;2.13;;;2.00;;
26594;SDS011;14238;49.496;8.154;2023-04-03T16:25:37;1.90;;;1.80;;
26594;SDS011;14238;49.496;8.154;2023-04-03T16:28:03;2.63;;;2.30;;
26594;SDS011;14238;49.496;8.154;2023-04-03T16:30:29;2.00;;;1.90;;
26594;SDS011;14238;49.496;8.154;2023-04-03T16:32:54;2.37;;;2.17;;
26594;SDS011;14238;49.496;8.154;2023-04-03T16:35:21;4.37;;;3.30;;
26594;SDS011;14238;49.496;8.154;2023-04-03T16:37:47;3.20;;;1.87;;
26594;SDS011;14238;49.496;8.154;2023-04-03T16:40:13;1.70;;;1.60;;
26594;SDS011;14238;49.496;8.154;2023-04-03T16:42:39;2.87;;;2.67;;
26594;SDS011;14238;49.496;8.154;2023-04-03T16:45:05;2.60;;;1.97;;
26594;SDS011;14238;49.496;8.154;2023-04-03T16:47:31;3.90;;;3.60;;
26594;SDS011;14238;49.496;8.154;2023-04-03T16:49:57;2.57;;;2.40;;
26594;SDS011;14238;49.496;8.154;2023-04-03T16:52:23;4.20;;;2.73;;